Weather at Waratah Airport

Public forecast

Using degrees Celsius for public forecast. Weather courtesy of forecast.io.

Closest aviation weather report (METAR) to Waratah Airport

Closest report is Launceston Airport, 75.0 nm (139.0 km) E.

2023/02/08 13:30 (retrieved 20 minutes ago)

YMLT 081330Z AUTO 19007KT 9999 // OVC033 13/11 Q1018 RF000/0000

Closest aviation forecast (TAF) to Waratah Airport

Closest forecast is Launceston Airport, 75.0 nm (139.0 km) E.

2023/02/08 12:36 (retrieved 1 hour ago)

TAF TAF YMLT 081131Z 0812/0912 18010KT 9999 -SHRA SCT015 BKN020 FM082100 17005KT 9999 NSW BKN030 FM090300 32013KT 9999 SCT045